< < Back
Terminal Aerodrome Forecast


Current Version              Previous Versions:   1  2  3  4  5  6  7  8  9  

Terminal Aerodrome Forecast

573
FTUS44 KMRX 222320
TAFCHA
TAF
KCHA 222320Z 2300/2324 29004KT P6SM SCT050 SCT090
     FM230400 35006KT P6SM SKC
     FM231500 02009KT P6SM SCT250=



Latest METAR

241
SAUS80 KWBC 232000 CCA
MTRCHA
METAR KCHA 231953Z 03010G16KT 10SM FEW250 23/02 A2995 RMK AO2 SLP139
T02330017


USA.gov is the U.S. government's official web portal to all federal, state and local government web resources and services.